Time;durP1;ratioP1;P1;durP2;ratioP2;P2;SDS_P1;SDS_P2;PMS_P1;PMS_P2;Temp;Humidity;BMP_temperature;BMP_pressure;BME280_temperature;BME280_humidity;BME280_pressure;Samples;Min_cycle;Max_cycle;Signal;HPM_P1;HPM_P2
2022/11/17 00:01:00;;;;;;;;;;;;;;;18.19;62.32;99885.48;2385446;73;53520;-76
2022/11/17 00:04:02;;;;;;;;;;;;;;;18.17;62.30;99886.19;2411422;73;51496;-76
2022/11/17 00:07:03;;;;;;;;;;;;;;;18.17;62.27;99903.59;2358915;73;52304;-76
2022/11/17 00:10:05;;;;;;;;;;;;;;;18.16;62.25;99895.23;2385968;73;50047;-76
2022/11/17 00:16:28;;;;;;;;;;;;;;;18.13;62.24;99895.63;2401770;73;22370;-76
2022/11/17 00:22:49;;;;;;;;;;;;;;;18.12;62.25;99884.10;2395343;74;22474;-78
2022/11/17 00:25:51;;;;;;;;;;;;;;;18.10;62.22;99882.13;2369509;74;50443;-77
2022/11/17 00:28:54;;;;;;;;;;;;;;;18.09;62.25;99879.15;2405740;73;51571;-77
2022/11/17 00:35:05;;;;;;;;;;;;;;;18.07;62.24;99874.50;2367455;73;22392;-77
2022/11/17 00:38:15;;;;;;;;;;;;;;;18.06;62.27;99878.21;2376683;73;50664;-77
2022/11/17 00:41:17;;;;;;;;;;;;;;;18.08;62.14;99878.00;2380021;73;51411;-76
2022/11/17 00:44:19;;;;;;;;;;;;;;;18.10;62.14;99873.27;2331929;75;50947;-77
2022/11/17 00:47:20;;;;;;;;;;;;;;;18.11;62.08;99870.90;2341241;75;51507;-76
2022/11/17 00:50:23;;;;;;;;;;;;;;;18.07;62.08;99861.11;2375144;72;51413;-77
2022/11/17 00:53:24;;;;;;;;;;;;;;;18.05;62.08;99853.78;2382174;73;50672;-77
2022/11/17 00:56:26;;;;;;;;;;;;;;;18.03;62.05;99851.33;2370597;73;49557;-77
2022/11/17 00:59:28;;;;;;;;;;;;;;;18.02;62.11;99856.34;2384569;73;51479;-77
2022/11/17 01:02:29;;;;;;;;;;;;;;;18.05;62.05;99862.64;2411679;73;51539;-77
2022/11/17 01:05:31;;;;;;;;;;;;;;;18.06;61.97;99864.31;2410976;74;51472;-77
2022/11/17 01:08:33;;;;;;;;;;;;;;;18.03;61.96;99856.68;2355059;74;50825;-77
2022/11/17 01:11:35;;;;;;;;;;;;;;;18.03;61.93;99854.00;2382283;74;50522;-77
2022/11/17 01:14:36;;;;;;;;;;;;;;;18.05;61.89;99859.96;2410977;74;51512;-77
2022/11/17 01:17:38;;;;;;;;;;;;;;;18.04;61.89;99859.66;2382204;74;50732;-77
2022/11/17 01:20:39;;;;;;;;;;;;;;;18.05;61.87;99849.25;2427406;72;51642;-76
2022/11/17 01:23:42;;;;;;;;;;;;;;;18.04;61.64;99851.63;2415306;73;51542;-76
2022/11/17 01:26:44;;;;;;;;;;;;;;;18.00;61.76;99858.39;2396825;73;50454;-76
2022/11/17 01:29:45;;;;;;;;;;;;;;;18.00;61.88;99850.88;2393219;73;51501;-76
2022/11/17 01:32:47;;;;;;;;;;;;;;;18.00;61.80;99846.86;2386238;73;51048;-76
2022/11/17 01:35:48;;;;;;;;;;;;;;;17.96;61.77;99846.45;2386128;73;50403;-77
2022/11/17 01:38:50;;;;;;;;;;;;;;;17.94;61.83;99849.83;2412358;73;50393;-76
2022/11/17 01:41:52;;;;;;;;;;;;;;;17.91;61.88;99844.88;2411630;73;50385;-76
2022/11/17 01:44:54;;;;;;;;;;;;;;;17.95;61.81;99843.95;2386134;73;51342;-76
2022/11/17 01:47:59;;;;;;;;;;;;;;;17.95;61.81;99842.09;2385982;73;51354;-76
2022/11/17 01:51:03;;;;;;;;;;;;;;;17.98;61.71;99830.17;2412266;73;51572;-76
2022/11/17 01:54:04;;;;;;;;;;;;;;;17.96;61.74;99827.71;2412311;73;22488;-76
2022/11/17 01:57:07;;;;;;;;;;;;;;;17.90;61.75;99829.83;2363593;74;49470;-77
2022/11/17 02:00:09;;;;;;;;;;;;;;;17.92;61.81;99829.64;2371564;74;51542;-77
2022/11/17 02:03:11;;;;;;;;;;;;;;;17.89;61.72;99825.51;2409127;74;50624;-77
2022/11/17 02:06:13;;;;;;;;;;;;;;;17.91;61.70;99819.97;2409473;73;50701;-77
2022/11/17 02:09:14;;;;;;;;;;;;;;;17.89;61.75;99833.53;2404580;73;51232;-77
2022/11/17 02:12:16;;;;;;;;;;;;;;;17.88;61.72;99829.70;2368657;75;50364;-76
2022/11/17 02:15:18;;;;;;;;;;;;;;;17.88;61.77;99821.68;2375798;74;50331;-77
2022/11/17 02:18:19;;;;;;;;;;;;;;;17.88;61.78;99823.02;2407587;72;50405;-77
2022/11/17 02:21:38;;;;;;;;;;;;;;;17.89;61.70;99825.51;2377820;73;50042;-76
2022/11/17 02:24:47;;;;;;;;;;;;;;;17.86;61.63;99822.41;2413559;73;51453;-76
2022/11/17 02:27:50;;;;;;;;;;;;;;;17.83;61.71;99824.97;2413141;73;52142;-77
2022/11/17 02:30:56;;;;;;;;;;;;;;;17.84;61.62;99819.41;2414703;73;51455;-77
2022/11/17 02:34:06;;;;;;;;;;;;;;;17.86;61.62;99818.41;2385954;73;52475;-76
2022/11/17 02:37:09;;;;;;;;;;;;;;;17.83;61.65;99823.64;2414190;73;50694;-77
2022/11/17 02:40:16;;;;;;;;;;;;;;;17.83;61.64;99828.98;2414474;73;50758;-77
2022/11/17 02:46:45;;;;;;;;;;;;;;;17.83;61.69;99823.64;2414274;73;22414;-77
2022/11/17 02:49:48;;;;;;;;;;;;;;;17.82;61.67;99812.60;2403101;73;51559;-75
2022/11/17 02:52:50;;;;;;;;;;;;;;;17.86;61.51;99811.71;2413381;73;50863;-77
2022/11/17 02:55:52;;;;;;;;;;;;;;;17.80;61.50;99806.12;2412207;73;51558;-77
2022/11/17 02:58:57;;;;;;;;;;;;;;;17.80;61.64;99802.59;2382860;73;49571;-76
2022/11/17 03:02:09;;;;;;;;;;;;;;;17.79;61.54;99795.09;2412468;73;51583;-78
2022/11/17 03:05:15;;;;;;;;;;;;;;;17.78;61.61;99796.61;2412990;73;50264;-76
2022/11/17 03:08:36;;;;;;;;;;;;;;;17.83;61.50;99790.19;2408390;73;50648;-77
2022/11/17 03:11:45;;;;;;;;;;;;;;;17.83;61.33;99789.67;2383878;73;51710;-76
2022/11/17 03:15:05;;;;;;;;;;;;;;;17.85;61.31;99788.11;2411524;72;51513;-77
2022/11/17 03:18:26;;;;;;;;;;;;;;;17.82;61.36;99789.34;2415147;73;51399;-75
2022/11/17 03:21:29;;;;;;;;;;;;;;;17.79;61.47;99792.91;2287376;76;51155;-77
2022/11/17 03:24:32;;;;;;;;;;;;;;;17.78;61.48;99789.92;2263107;77;51173;-77
2022/11/17 03:27:35;;;;;;;;;;;;;;;17.81;61.37;99788.22;2286265;76;51545;-77
2022/11/17 03:30:38;;;;;;;;;;;;;;;17.78;61.52;99795.28;2287214;76;51649;-78
2022/11/17 03:33:39;;;;;;;;;;;;;;;17.74;61.41;99781.97;2276110;77;51396;-77
2022/11/17 03:36:41;;;;;;;;;;;;;;;17.76;61.44;99789.29;2260715;77;51638;-77
2022/11/17 03:39:44;;;;;;;;;;;;;;;17.75;61.44;99791.63;2287060;77;50417;-77
2022/11/17 03:42:51;;;;;;;;;;;;;;;17.77;61.39;99790.93;2286999;77;51339;-77
2022/11/17 03:45:51;;;;;;;;;;;;;;;17.73;61.39;99791.03;2286663;77;22407;-77
2022/11/17 03:48:56;;;;;;;;;;;;;;;17.73;61.40;99789.69;2261237;78;51783;-77
2022/11/17 03:51:58;;;;;;;;;;;;;;;17.73;61.43;99783.83;2329481;74;51458;-77
2022/11/17 03:55:00;;;;;;;;;;;;;;;17.73;61.38;99775.80;2410576;74;50243;-77
2022/11/17 03:58:06;;;;;;;;;;;;;;;17.74;61.41;99780.11;2410636;74;51423;-77
2022/11/17 04:01:08;;;;;;;;;;;;;;;17.72;61.30;99783.49;2407859;73;50458;-77
2022/11/17 04:04:16;;;;;;;;;;;;;;;17.70;61.38;99782.89;2410934;73;51520;-77
2022/11/17 04:07:18;;;;;;;;;;;;;;;17.69;61.40;99779.06;2414447;73;50673;-77
2022/11/17 04:10:20;;;;;;;;;;;;;;;17.70;61.34;99779.36;2414380;73;51435;-77
2022/11/17 04:16:41;;;;;;;;;;;;;;;17.71;61.30;99781.03;2392602;73;22350;-77
2022/11/17 04:19:43;;;;;;;;;;;;;;;17.70;61.25;99783.38;2414359;73;50662;-77
2022/11/17 04:22:45;;;;;;;;;;;;;;;17.66;61.27;99768.25;2414226;73;50742;-77
2022/11/17 04:29:07;;;;;;;;;;;;;;;17.71;60.99;99755.62;2392654;73;22242;-77
2022/11/17 04:32:08;;;;;;;;;;;;;;;17.80;60.75;99761.12;2376820;73;51475;-77
2022/11/17 04:35:10;;;;;;;;;;;;;;;17.87;60.56;99743.77;2380055;73;51423;-77
2022/11/17 04:38:11;;;;;;;;;;;;;;;17.91;60.52;99752.55;2342585;75;51717;-77
2022/11/17 04:44:33;;;;;;;;;;;;;;;18.04;60.23;99753.92;2370170;75;22383;-77
2022/11/17 04:47:34;;;;;;;;;;;;;;;18.13;59.96;99745.70;2370765;75;51315;-77
2022/11/17 04:50:36;;;;;;;;;;;;;;;18.21;59.77;99757.07;2369987;75;50415;-77
2022/11/17 04:53:38;;;;;;;;;;;;;;;18.31;59.54;99752.64;2342423;74;52682;-77
2022/11/17 04:56:39;;;;;;;;;;;;;;;18.41;59.38;99749.05;2342424;75;49951;-78
2022/11/17 04:59:41;;;;;;;;;;;;;;;18.50;59.13;99745.16;2342559;75;50316;-77
2022/11/17 05:02:42;;;;;;;;;;;;;;;18.61;58.97;99748.27;2369521;73;49983;-77
2022/11/17 05:05:44;;;;;;;;;;;;;;;18.70;58.73;99742.50;2343095;74;51659;-77
2022/11/17 05:08:46;;;;;;;;;;;;;;;18.80;58.52;99739.42;2341410;75;50703;-77
2022/11/17 05:15:08;;;;;;;;;;;;;;;19.02;58.09;99747.27;2352465;74;25482;-77
2022/11/17 05:18:10;;;;;;;;;;;;;;;19.13;57.93;99743.94;2348995;75;51252;-77
2022/11/17 05:21:11;;;;;;;;;;;;;;;19.24;57.77;99741.98;2341343;75;50392;-76
2022/11/17 05:24:16;;;;;;;;;;;;;;;19.33;57.66;99735.86;2368514;74;50427;-77
2022/11/17 05:27:17;;;;;;;;;;;;;;;19.44;57.58;99737.06;2342007;75;50252;-76
2022/11/17 05:30:19;;;;;;;;;;;;;;;19.53;57.43;99723.73;2341429;75;50517;-76
2022/11/17 05:33:20;;;;;;;;;;;;;;;19.62;57.39;99729.16;2372871;73;50625;-76
2022/11/17 05:36:22;;;;;;;;;;;;;;;19.70;57.16;99728.95;2391424;74;50743;-76
2022/11/17 05:39:24;;;;;;;;;;;;;;;19.78;56.95;99716.65;2391602;74;50298;-77
2022/11/17 05:42:25;;;;;;;;;;;;;;;19.84;56.87;99713.63;2376631;73;51210;-76
2022/11/17 05:45:27;;;;;;;;;;;;;;;19.91;56.77;99701.49;2411650;73;50733;-76
2022/11/17 05:48:29;;;;;;;;;;;;;;;20.03;56.55;99707.83;2411894;73;51438;-77
2022/11/17 05:51:31;;;;;;;;;;;;;;;20.08;56.74;99705.33;2412065;73;50392;-76
2022/11/17 05:54:32;;;;;;;;;;;;;;;20.16;56.72;99706.93;2354828;73;52463;-76
2022/11/17 05:57:34;;;;;;;;;;;;;;;20.22;56.65;99707.42;2382734;73;50804;-75
2022/11/17 06:00:36;;;;;;;;;;;;;;;20.28;56.52;99709.23;2411772;73;52313;-75
2022/11/17 06:03:39;;;;;;;;;;;;;;;20.36;56.17;99702.77;2401491;73;50715;-75
2022/11/17 06:06:40;;;;;;;;;;;;;;;20.42;55.69;99701.89;2341077;75;50002;-76
2022/11/17 06:09:42;;;;;;;;;;;;;;;20.47;55.71;99710.64;2341131;75;51130;-76
2022/11/17 06:12:44;;;;;;;;;;;;;;;20.52;55.63;99712.98;2374127;74;50351;-76
2022/11/17 06:15:45;;;;;;;;;;;;;;;20.50;55.56;99714.23;2346923;72;49829;-76
2022/11/17 06:18:48;;;;;;;;;;;;;;;20.47;55.50;99712.81;2385560;73;51938;-76
2022/11/17 06:21:50;;;;;;;;;;;;;;;20.40;55.76;99710.72;2410121;73;50678;-76
2022/11/17 06:24:51;;;;;;;;;;;;;;;20.29;56.17;99708.18;2395007;72;51408;-75
2022/11/17 06:27:53;;;;;;;;;;;;;;;20.20;56.48;99707.62;2369712;73;51431;-76
2022/11/17 06:30:55;;;;;;;;;;;;;;;20.11;56.78;99701.38;2340944;75;51076;-75
2022/11/17 06:33:56;;;;;;;;;;;;;;;20.02;57.03;99707.54;2368625;75;51484;-76
2022/11/17 06:36:58;;;;;;;;;;;;;;;19.92;57.30;99694.58;2384018;73;51555;-77
2022/11/17 06:39:59;;;;;;;;;;;;;;;19.84;57.53;99708.78;2353731;74;50105;-75
2022/11/17 06:43:10;;;;;;;;;;;;;;;19.75;57.70;99710.34;2347260;73;52109;-76
2022/11/17 06:46:11;;;;;;;;;;;;;;;19.67;57.91;99695.02;2381164;73;50342;-77
2022/11/17 06:49:13;;;;;;;;;;;;;;;19.58;58.04;99687.17;2383974;73;50471;-77
2022/11/17 06:52:15;;;;;;;;;;;;;;;19.49;58.17;99686.28;2341928;75;50700;-77
2022/11/17 06:55:17;;;;;;;;;;;;;;;19.44;58.31;99686.09;2341475;75;50314;-77
2022/11/17 06:58:18;;;;;;;;;;;;;;;19.36;58.44;99685.28;2341445;75;51314;-75
2022/11/17 07:01:20;;;;;;;;;;;;;;;19.31;58.48;99673.02;2341415;75;51506;-76
2022/11/17 07:04:21;;;;;;;;;;;;;;;19.26;58.58;99665.31;2368474;75;50627;-77
2022/11/17 07:07:23;;;;;;;;;;;;;;;19.19;58.64;99668.03;2430053;71;50049;-77
2022/11/17 07:10:25;;;;;;;;;;;;;;;19.13;58.82;99671.54;2436641;72;51474;-75
2022/11/17 07:13:26;;;;;;;;;;;;;;;19.07;58.92;99663.00;2463443;72;50701;-76
2022/11/17 07:16:29;;;;;;;;;;;;;;;19.02;59.03;99665.49;2422734;72;49687;-76
2022/11/17 07:19:31;;;;;;;;;;;;;;;18.95;59.19;99668.70;2367389;73;51292;-76
2022/11/17 07:22:32;;;;;;;;;;;;;;;18.90;59.29;99668.80;2413598;73;50297;-76
2022/11/17 07:25:34;;;;;;;;;;;;;;;18.85;59.42;99659.22;2387586;73;50372;-76
2022/11/17 07:28:35;;;;;;;;;;;;;;;18.85;59.38;99669.94;2408930;73;50186;-76
2022/11/17 07:31:37;;;;;;;;;;;;;;;18.79;59.50;99672.13;2381651;73;50036;-76
2022/11/17 07:34:39;;;;;;;;;;;;;;;18.74;59.77;99669.73;2404267;73;50212;-74
2022/11/17 07:37:41;;;;;;;;;;;;;;;18.69;60.04;99677.87;2381121;73;51458;-76
2022/11/17 07:40:42;;;;;;;;;;;;;;;18.61;60.65;99662.53;2399803;73;50060;-75
2022/11/17 07:43:44;;;;;;;;;;;;;;;18.58;60.68;99677.16;2398899;73;51222;-76
2022/11/17 07:46:45;;;;;;;;;;;;;;;18.50;60.87;99668.00;2411584;72;50385;-76
2022/11/17 07:49:47;;;;;;;;;;;;;;;18.50;60.91;99675.52;2412367;73;51601;-76
2022/11/17 07:52:49;;;;;;;;;;;;;;;18.47;61.05;99685.80;2387992;73;50312;-76
2022/11/17 07:55:51;;;;;;;;;;;;;;;18.46;61.06;99682.82;2415900;73;50992;-76
2022/11/17 07:58:53;;;;;;;;;;;;;;;18.42;61.16;99686.93;2388036;73;51547;-75
2022/11/17 08:01:55;;;;;;;;;;;;;;;18.41;61.27;99675.92;2413990;73;50125;-74
2022/11/17 08:04:56;;;;;;;;;;;;;;;18.37;61.31;99676.86;2387916;73;51625;-75
2022/11/17 08:07:58;;;;;;;;;;;;;;;18.35;61.33;99670.88;2360641;73;51215;-74
2022/11/17 08:11:04;;;;;;;;;;;;;;;18.34;61.37;99670.58;2388122;73;50708;-75
2022/11/17 08:14:05;;;;;;;;;;;;;;;18.29;61.38;99670.37;2413881;73;50305;-75
2022/11/17 08:17:07;;;;;;;;;;;;;;;18.27;61.38;99664.38;2383427;73;50429;-75
2022/11/17 08:20:11;;;;;;;;;;;;;;;18.26;61.39;99664.05;2377434;73;49589;-77
2022/11/17 08:23:12;;;;;;;;;;;;;;;18.20;61.42;99661.69;2411940;73;22352;-76
2022/11/17 08:26:13;;;;;;;;;;;;;;;18.21;61.44;99658.48;2402417;73;50658;-76
2022/11/17 08:29:15;;;;;;;;;;;;;;;18.17;61.48;99653.25;2380557;74;51398;-76
2022/11/17 08:32:17;;;;;;;;;;;;;;;18.16;61.53;99646.23;2377154;73;49315;-77
2022/11/17 08:35:19;;;;;;;;;;;;;;;18.13;61.54;99644.78;2388167;73;50360;-78
2022/11/17 08:38:23;;;;;;;;;;;;;;;18.11;61.45;99654.90;2388518;73;51589;-78
2022/11/17 08:41:25;;;;;;;;;;;;;;;18.10;61.44;99645.72;2417068;73;22525;-78
2022/11/17 08:44:27;;;;;;;;;;;;;;;18.10;61.30;99651.08;2381266;73;51800;-78
2022/11/17 08:47:29;;;;;;;;;;;;;;;18.13;60.97;99641.30;2374265;72;51608;-77
2022/11/17 08:50:31;;;;;;;;;;;;;;;18.11;61.07;99646.02;2413630;73;51572;-77
2022/11/17 08:53:32;;;;;;;;;;;;;;;18.06;61.30;99644.80;2416097;72;51465;-77
2022/11/17 08:56:34;;;;;;;;;;;;;;;18.04;61.38;99635.32;2427896;72;52395;-78
2022/11/17 08:59:35;;;;;;;;;;;;;;;18.05;61.28;99636.44;2391158;73;51677;-79
2022/11/17 09:02:37;;;;;;;;;;;;;;;18.06;61.32;99639.97;2412290;72;50746;-79
2022/11/17 09:05:39;;;;;;;;;;;;;;;18.03;61.30;99639.86;2461708;72;51551;-79
2022/11/17 09:08:41;;;;;;;;;;;;;;;18.00;61.41;99643.44;2427687;72;50291;-78
2022/11/17 09:11:43;;;;;;;;;;;;;;;18.01;61.10;99645.92;2416194;72;51574;-77
2022/11/17 09:14:45;;;;;;;;;;;;;;;18.02;61.00;99657.45;2435519;72;50404;-77
2022/11/17 09:17:46;;;;;;;;;;;;;;;17.97;61.20;99663.92;2372661;72;50812;-76
2022/11/17 09:20:48;;;;;;;;;;;;;;;17.95;61.33;99657.94;2407154;73;52887;-77
2022/11/17 09:23:50;;;;;;;;;;;;;;;17.95;61.35;99664.11;2412535;73;50353;-78
2022/11/17 09:26:53;;;;;;;;;;;;;;;17.91;61.40;99664.22;2404421;73;50506;-78
2022/11/17 09:29:55;;;;;;;;;;;;;;;17.89;61.40;99654.23;2404004;72;51562;-77
2022/11/17 09:32:57;;;;;;;;;;;;;;;17.87;61.39;99668.32;2382382;73;52347;-77
2022/11/17 09:35:58;;;;;;;;;;;;;;;17.93;61.10;99669.36;2412079;74;51618;-77
2022/11/17 09:39:00;;;;;;;;;;;;;;;17.91;61.22;99658.87;2409740;72;51372;-77
2022/11/17 09:42:02;;;;;;;;;;;;;;;17.86;61.40;99657.31;2373177;73;51377;-78
2022/11/17 09:45:04;;;;;;;;;;;;;;;17.84;61.46;99663.38;2378607;73;51776;-78
2022/11/17 09:48:07;;;;;;;;;;;;;;;17.85;61.52;99656.98;2367557;73;50085;-78
2022/11/17 09:51:10;;;;;;;;;;;;;;;17.83;61.47;99654.53;2423083;72;50849;-77
2022/11/17 09:54:14;;;;;;;;;;;;;;;17.83;61.59;99644.34;2393842;73;50710;-78
2022/11/17 09:57:17;;;;;;;;;;;;;;;17.82;61.59;99645.36;2366424;73;49679;-77
2022/11/17 10:00:19;;;;;;;;;;;;;;;17.80;61.58;99644.73;2381685;73;50730;-78
2022/11/17 10:03:22;;;;;;;;;;;;;;;17.77;61.54;99649.13;2374942;72;50753;-78
2022/11/17 10:06:24;;;;;;;;;;;;;;;17.80;61.49;99664.80;2395807;72;50663;-80
2022/11/17 10:09:30;;;;;;;;;;;;;;;17.79;61.43;99662.64;2346740;72;50992;-77
2022/11/17 10:12:33;;;;;;;;;;;;;;;17.78;61.61;99660.97;2411844;73;50805;-77
2022/11/17 10:15:37;;;;;;;;;;;;;;;17.78;61.54;99655.63;2413235;73;50708;-77
2022/11/17 10:18:39;;;;;;;;;;;;;;;17.81;61.53;99645.06;2392118;73;51492;-77
2022/11/17 10:21:40;;;;;;;;;;;;;;;17.77;61.56;99642.43;2367681;72;53144;-77
2022/11/17 10:24:43;;;;;;;;;;;;;;;17.76;61.53;99647.48;2392146;73;51543;-78
2022/11/17 10:27:46;;;;;;;;;;;;;;;17.76;61.56;99638.12;2402132;72;50728;-77
2022/11/17 10:30:55;;;;;;;;;;;;;;;17.74;61.67;99638.31;2386727;72;50687;-76
2022/11/17 10:33:56;;;;;;;;;;;;;;;17.73;61.61;99640.69;2374787;73;51769;-77
2022/11/17 10:36:59;;;;;;;;;;;;;;;17.73;61.51;99629.16;2384596;73;50848;-78
2022/11/17 10:40:18;;;;;;;;;;;;;;;17.77;61.24;99621.02;2409951;73;50867;-79
2022/11/17 10:43:21;;;;;;;;;;;;;;;17.81;60.89;99629.00;2387534;73;50362;-78
2022/11/17 10:46:23;;;;;;;;;;;;;;;17.78;61.26;99619.50;2380727;72;50453;-78
2022/11/17 10:49:25;;;;;;;;;;;;;;;17.78;61.19;99617.34;2410985;72;50358;-78
2022/11/17 10:52:27;;;;;;;;;;;;;;;17.77;61.23;99609.80;2401465;72;50478;-78
2022/11/17 10:55:30;;;;;;;;;;;;;;;17.79;61.32;99604.27;2410591;73;51358;-77
2022/11/17 10:58:32;;;;;;;;;;;;;;;17.72;61.16;99607.43;2385528;73;52599;-77
2022/11/17 11:01:35;;;;;;;;;;;;;;;17.70;61.27;99604.13;2411974;73;50381;-78
2022/11/17 11:04:40;;;;;;;;;;;;;;;17.68;61.36;99599.00;2410800;73;50669;-78
2022/11/17 11:07:41;;;;;;;;;;;;;;;17.67;61.28;99593.84;2387459;73;51542;-78
2022/11/17 11:10:43;;;;;;;;;;;;;;;17.69;60.92;99583.77;2386603;73;50948;-78
2022/11/17 11:13:49;;;;;;;;;;;;;;;17.76;60.53;99581.93;2411725;72;50359;-78
2022/11/17 11:16:51;;;;;;;;;;;;;;;17.82;60.34;99582.48;2412963;73;50309;-78
2022/11/17 11:19:52;;;;;;;;;;;;;;;17.85;60.31;99576.70;2412232;73;49960;-78
2022/11/17 11:23:08;;;;;;;;;;;;;;;17.84;60.89;99579.09;2379761;73;52331;-78
2022/11/17 11:26:20;;;;;;;;;;;;;;;17.80;61.07;99575.16;2358672;74;52565;-79
2022/11/17 11:29:26;;;;;;;;;;;;;;;17.79;61.11;99574.83;2407903;73;50455;-78
2022/11/17 11:32:47;;;;;;;;;;;;;;;17.74;61.22;99570.60;2411891;73;52626;-79
2022/11/17 11:35:50;;;;;;;;;;;;;;;17.72;61.23;99567.30;2382198;73;50048;-80
2022/11/17 11:39:02;;;;;;;;;;;;;;;17.70;61.26;99566.19;2412223;73;50002;-79
2022/11/17 11:42:21;;;;;;;;;;;;;;;17.71;61.25;99567.00;2411874;73;51417;-78
2022/11/17 11:45:31;;;;;;;;;;;;;;;17.76;60.93;99557.85;2411829;73;51516;-78
2022/11/17 11:48:33;;;;;;;;;;;;;;;17.77;61.02;99553.61;2412143;73;50244;-77
2022/11/17 11:51:36;;;;;;;;;;;;;;;17.84;60.78;99553.14;2452625;72;50705;-76
2022/11/17 11:54:53;;;;;;;;;;;;;;;17.77;61.36;99548.78;2386769;73;51563;-76
2022/11/17 11:57:56;;;;;;;;;;;;;;;17.73;61.99;99540.88;2324861;75;50510;-76
2022/11/17 12:01:05;;;;;;;;;;;;;;;17.72;62.77;99559.27;2341008;75;51098;-74
2022/11/17 12:04:08;;;;;;;;;;;;;;;17.74;62.55;99552.69;2368523;75;50651;-76
2022/11/17 12:07:23;;;;;;;;;;;;;;;17.77;62.44;99550.13;2385486;73;50786;-76
2022/11/17 12:10:36;;;;;;;;;;;;;;;17.81;62.50;99539.36;2403086;74;51527;-75
2022/11/17 12:13:37;;;;;;;;;;;;;;;17.86;63.24;99552.14;2380316;74;52390;-77
2022/11/17 12:16:42;;;;;;;;;;;;;;;17.85;62.92;99547.27;2410409;74;51587;-77
2022/11/17 12:19:48;;;;;;;;;;;;;;;17.86;62.06;99536.90;2410542;74;21968;-75
2022/11/17 12:23:11;;;;;;;;;;;;;;;17.91;61.72;99546.47;2398281;73;50750;-75
2022/11/17 12:26:20;;;;;;;;;;;;;;;17.88;62.04;99550.05;2408111;73;52527;-75
2022/11/17 12:29:26;;;;;;;;;;;;;;;17.91;62.19;99547.81;2413946;73;50766;-75
2022/11/17 12:32:47;;;;;;;;;;;;;;;17.89;62.21;99549.86;2414239;73;50780;-77
2022/11/17 12:36:00;;;;;;;;;;;;;;;17.89;62.21;99541.83;2393111;73;51487;-77
2022/11/17 12:39:02;;;;;;;;;;;;;;;17.88;62.62;99547.38;2380374;72;52615;-78
2022/11/17 12:42:05;;;;;;;;;;;;;;;17.87;62.59;99546.56;2383650;73;50429;-78
2022/11/17 12:45:07;;;;;;;;;;;;;;;17.75;62.64;99542.81;2341568;75;51459;-78
2022/11/17 12:48:08;;;;;;;;;;;;;;;17.80;62.51;99534.53;2370097;73;50088;-78
2022/11/17 12:51:18;;;;;;;;;;;;;;;17.83;62.12;99538.66;2385920;73;51158;-78
2022/11/17 12:54:21;;;;;;;;;;;;;;;17.87;61.62;99545.74;2401786;72;51548;-78
2022/11/17 12:57:24;;;;;;;;;;;;;;;17.91;61.24;99550.48;2409544;73;51437;-78
2022/11/17 13:00:26;;;;;;;;;;;;;;;17.92;61.28;99538.73;2412536;73;50395;-78
2022/11/17 13:03:29;;;;;;;;;;;;;;;17.93;61.25;99536.39;2386195;73;51142;-77
2022/11/17 13:06:31;;;;;;;;;;;;;;;17.92;61.51;99544.09;2409581;73;50292;-77
2022/11/17 13:09:33;;;;;;;;;;;;;;;17.91;61.81;99526.40;2386434;73;50112;-76
2022/11/17 13:12:35;;;;;;;;;;;;;;;17.90;61.90;99532.77;2412467;73;50663;-78
2022/11/17 13:15:37;;;;;;;;;;;;;;;17.86;63.32;99540.09;2386227;73;49585;-78
2022/11/17 13:18:39;;;;;;;;;;;;;;;17.84;63.60;99538.95;2454470;72;51433;-78
2022/11/17 13:21:42;;;;;;;;;;;;;;;17.90;63.24;99538.12;2458290;72;50679;-78
2022/11/17 13:28:28;;;;;;;;;;;;;;;17.93;62.87;99539.06;2412931;73;24402;-78
2022/11/17 13:31:30;;;;;;;;;;;;;;;17.92;63.12;99532.56;2411937;73;50420;-78
2022/11/17 13:34:31;;;;;;;;;;;;;;;17.98;62.64;99527.23;2411593;73;50774;-77
2022/11/17 13:37:33;;;;;;;;;;;;;;;17.97;62.63;99531.44;2411701;73;51449;-78
2022/11/17 13:40:35;;;;;;;;;;;;;;;17.91;63.11;99526.92;2381383;73;50828;-76
2022/11/17 13:43:37;;;;;;;;;;;;;;;17.87;63.11;99517.12;2411435;73;50264;-77
2022/11/17 13:46:39;;;;;;;;;;;;;;;17.79;64.55;99518.16;2412095;73;50411;-77
2022/11/17 13:49:41;;;;;;;;;;;;;;;17.72;64.12;99512.45;2411553;73;50653;-77
2022/11/17 13:52:42;;;;;;;;;;;;;;;17.72;63.99;99512.45;2359211;73;49553;-77
2022/11/17 13:55:46;;;;;;;;;;;;;;;17.80;63.60;99521.64;2393265;73;51543;-77
2022/11/17 13:58:48;;;;;;;;;;;;;;;17.81;63.07;99528.14;2410159;73;50950;-77
2022/11/17 14:01:50;;;;;;;;;;;;;;;17.87;62.71;99514.97;2411757;73;50336;-77
2022/11/17 14:05:07;;;;;;;;;;;;;;;17.94;62.25;99527.32;2359009;73;52637;-78
2022/11/17 14:08:14;;;;;;;;;;;;;;;17.93;62.23;99515.47;2363873;74;51448;-78
2022/11/17 14:11:20;;;;;;;;;;;;;;;17.92;62.24;99512.50;2411062;73;51659;-77
2022/11/17 14:14:20;;;;;;;;;;;;;;;17.89;62.22;99514.25;2414016;73;22520;-78
2022/11/17 14:17:22;;;;;;;;;;;;;;;17.86;62.23;99510.14;2379777;73;52561;-77
2022/11/17 14:20:25;;;;;;;;;;;;;;;17.82;62.42;99512.38;2411059;73;51520;-77
2022/11/17 14:23:26;;;;;;;;;;;;;;;17.80;63.14;99510.45;2396372;73;51394;-77
2022/11/17 14:26:28;;;;;;;;;;;;;;;17.83;63.10;99512.70;2376018;73;52326;-77
2022/11/17 14:29:29;;;;;;;;;;;;;;;17.84;63.60;99504.16;2340577;75;52640;-78
2022/11/17 14:32:33;;;;;;;;;;;;;;;17.81;63.00;99501.91;2341446;75;51311;-77
2022/11/17 14:35:34;;;;;;;;;;;;;;;17.84;62.59;99513.01;2341744;75;22408;-78
2022/11/17 14:38:36;;;;;;;;;;;;;;;17.90;62.21;99502.51;2368868;75;50676;-77
2022/11/17 14:41:40;;;;;;;;;;;;;;;17.89;62.13;99503.55;2341296;75;52520;-77
2022/11/17 14:44:41;;;;;;;;;;;;;;;17.88;62.08;99515.27;2341559;75;22239;-77
2022/11/17 14:47:42;;;;;;;;;;;;;;;17.84;62.19;99512.19;2368886;75;50398;-77
2022/11/17 14:50:44;;;;;;;;;;;;;;;17.80;62.43;99513.62;2368759;75;50361;-77
2022/11/17 14:53:45;;;;;;;;;;;;;;;17.80;62.81;99510.45;2352291;74;49618;-77
2022/11/17 14:56:47;;;;;;;;;;;;;;;17.81;63.09;99524.64;2368231;74;51367;-77
2022/11/17 14:59:49;;;;;;;;;;;;;;;17.83;63.17;99518.58;2395236;73;51409;-77
2022/11/17 15:02:50;;;;;;;;;;;;;;;17.84;63.22;99508.17;2411797;73;51386;-77
2022/11/17 15:05:52;;;;;;;;;;;;;;;17.80;62.77;99512.28;2358580;72;49608;-77
2022/11/17 15:08:57;;;;;;;;;;;;;;;17.84;62.50;99510.85;2407589;72;51137;-77
2022/11/17 15:11:59;;;;;;;;;;;;;;;17.93;62.25;99513.64;2383244;74;50345;-78
2022/11/17 15:15:00;;;;;;;;;;;;;;;18.00;61.90;99513.09;2386033;74;50263;-77
2022/11/17 15:18:02;;;;;;;;;;;;;;;17.99;61.85;99511.47;2344446;73;49566;-76
2022/11/17 15:21:05;;;;;;;;;;;;;;;17.99;61.85;99518.16;2410206;73;50153;-78
2022/11/17 15:24:08;;;;;;;;;;;;;;;17.96;61.94;99510.55;2407392;73;50314;-78
2022/11/17 15:27:09;;;;;;;;;;;;;;;17.92;62.04;99507.97;2383415;73;51585;-78
2022/11/17 15:30:13;;;;;;;;;;;;;;;17.89;62.06;99507.05;2347585;74;52534;-78
2022/11/17 15:33:14;;;;;;;;;;;;;;;17.86;62.20;99508.80;2400199;73;50671;-79
2022/11/17 15:36:16;;;;;;;;;;;;;;;17.84;62.59;99513.53;2412347;73;50638;-76
2022/11/17 15:39:19;;;;;;;;;;;;;;;17.80;62.92;99509.11;2411319;72;50325;-77
2022/11/17 15:42:21;;;;;;;;;;;;;;;17.84;62.59;99517.55;2382777;73;50107;-76
2022/11/17 15:45:22;;;;;;;;;;;;;;;17.94;62.22;99514.45;2385426;73;50616;-77
2022/11/17 15:48:24;;;;;;;;;;;;;;;17.99;62.03;99513.33;2386707;73;51407;-77
2022/11/17 15:51:26;;;;;;;;;;;;;;;17.97;61.83;99518.88;2414670;72;51508;-77
2022/11/17 15:54:27;;;;;;;;;;;;;;;17.95;61.94;99518.77;2376857;73;49612;-77
2022/11/17 15:57:29;;;;;;;;;;;;;;;17.94;61.97;99521.97;2389941;73;50318;-76
2022/11/17 16:00:32;;;;;;;;;;;;;;;17.90;62.14;99522.06;2415989;73;50050;-77
2022/11/17 16:03:34;;;;;;;;;;;;;;;17.86;62.28;99515.48;2425361;72;50774;-77
2022/11/17 16:06:36;;;;;;;;;;;;;;;17.81;62.83;99517.95;2461981;72;49557;-75
2022/11/17 16:09:38;;;;;;;;;;;;;;;17.81;63.44;99510.75;2399020;72;51543;-76
2022/11/17 16:12:39;;;;;;;;;;;;;;;17.76;63.95;99513.19;2377296;73;51385;-76
2022/11/17 16:15:41;;;;;;;;;;;;;;;17.76;63.80;99512.37;2413884;73;51494;-75
2022/11/17 16:18:43;;;;;;;;;;;;;;;17.79;63.48;99517.30;2360817;73;52602;-77
2022/11/17 16:21:45;;;;;;;;;;;;;;;17.87;63.30;99514.45;2387362;73;50401;-76
2022/11/17 16:24:46;;;;;;;;;;;;;;;17.95;63.08;99516.91;2387851;73;50664;-77